Terminal Aerodrome Forecast
Issued by NWS Grand Forks, ND

Home | Current Version | Previous Version | Text Only | Print | Product List | Glossary Off
Versions: 1 2 3 4 5 6 7 8 9 10 11 12 13 14

765
FTUS43 KFGF 252335
TAFFAR
TAF
KFAR 252335Z 2600/2624 20015KT P6SM BKN150
     FM260200 20009KT P6SM BKN150
     FM260700 32012G18KT P6SM BKN150
     FM260900 36016G25KT P6SM BKN120
     FM262200 33015KT P6SM SKC=

USA.gov is the U.S. government's official web portal to all federal, state and local government web resources and services.